createdAt,value
2022-10-18T00:00:57.137Z,141.07
2022-10-18T00:03:24.957Z,140.40
2022-10-18T00:05:53.337Z,141.10
2022-10-18T00:08:21.546Z,141.80
2022-10-18T00:10:50.017Z,141.97
2022-10-18T00:13:18.303Z,141.10
2022-10-18T00:15:50.640Z,140.67
2022-10-18T00:18:20.255Z,141.00
2022-10-18T00:20:58.082Z,141.20
2022-10-18T00:23:26.558Z,141.50
2022-10-18T00:26:01.288Z,141.40
2022-10-18T00:28:29.201Z,140.47
2022-10-18T00:30:57.052Z,141.03
2022-10-18T00:33:26.203Z,140.93
2022-10-18T00:35:54.164Z,141.87
2022-10-18T00:38:21.920Z,141.40
2022-10-18T00:40:49.679Z,141.77
2022-10-18T00:43:19.044Z,141.47
2022-10-18T00:45:46.853Z,140.87
2022-10-18T00:48:17.775Z,141.17
2022-10-18T00:50:49.651Z,142.00
2022-10-18T00:53:20.728Z,141.17
2022-10-18T00:55:49.018Z,141.80
2022-10-18T00:58:19.173Z,141.17
2022-10-18T01:00:47.216Z,141.40
2022-10-18T01:03:15.077Z,141.87
2022-10-18T01:05:47.397Z,142.20
2022-10-18T01:08:42.530Z,142.00
2022-10-18T01:11:24.283Z,141.27
2022-10-18T01:14:09.597Z,141.13
2022-10-18T01:16:42.294Z,140.67
2022-10-18T01:19:27.685Z,140.97
2022-10-18T01:22:00.052Z,140.57
2022-10-18T01:24:46.624Z,141.30
2022-10-18T01:27:31.268Z,141.43
2022-10-18T01:30:39.113Z,140.80
2022-10-18T01:33:15.702Z,140.80
2022-10-18T01:35:49.687Z,141.13
2022-10-18T01:38:20.285Z,141.13
2022-10-18T01:40:50.444Z,141.03
2022-10-18T01:43:20.808Z,141.20
2022-10-18T01:45:49.178Z,140.63
2022-10-18T01:48:19.248Z,141.30
2022-10-18T01:50:47.035Z,140.57
2022-10-18T01:53:26.231Z,141.10
2022-10-18T01:56:14.378Z,141.50
2022-10-18T01:58:49.468Z,141.50
2022-10-18T02:01:25.852Z,140.60
2022-10-18T02:03:59.068Z,140.63
2022-10-18T02:06:33.071Z,141.50
2022-10-18T02:09:05.920Z,140.97
2022-10-18T02:11:35.187Z,141.57
2022-10-18T02:14:08.576Z,141.37
2022-10-18T02:16:39.983Z,141.57
2022-10-18T02:19:11.940Z,141.13
2022-10-18T02:21:41.853Z,141.20
2022-10-18T02:24:10.927Z,142.00
2022-10-18T02:26:38.803Z,141.93
2022-10-18T02:29:06.830Z,141.37
2022-10-18T02:31:40.583Z,141.13
2022-10-18T02:34:21.080Z,142.03
2022-10-18T02:36:52.492Z,141.73
2022-10-18T02:39:23.371Z,141.33
2022-10-18T02:41:51.189Z,141.43
2022-10-18T02:44:18.968Z,141.10
2022-10-18T02:46:48.036Z,141.47
2022-10-18T02:49:17.392Z,140.80
2022-10-18T02:51:45.192Z,141.00
2022-10-18T02:54:13.006Z,140.97
2022-10-18T02:56:40.792Z,141.57
2022-10-18T02:59:08.562Z,140.70
2022-10-18T03:01:36.884Z,141.00
2022-10-18T03:04:05.696Z,140.80
2022-10-18T03:06:35.251Z,141.07
2022-10-18T03:09:03.601Z,140.77
2022-10-18T03:11:31.368Z,141.47
2022-10-18T03:13:59.480Z,141.23
2022-10-18T03:16:27.308Z,140.80
2022-10-18T03:18:55.072Z,141.33
2022-10-18T03:21:22.836Z,141.90
2022-10-18T03:23:51.966Z,140.83
2022-10-18T03:26:21.400Z,141.07
2022-10-18T03:28:49.293Z,140.53
2022-10-18T03:31:17.405Z,140.93
2022-10-18T03:33:45.276Z,141.50
2022-10-18T03:36:13.288Z,141.07
2022-10-18T03:38:41.166Z,140.67
2022-10-18T03:41:10.260Z,141.50
2022-10-18T03:43:38.151Z,141.07
2022-10-18T03:46:06.255Z,141.13
2022-10-18T03:48:34.023Z,140.70
2022-10-18T03:51:01.859Z,140.60
2022-10-18T03:53:29.652Z,141.50
2022-10-18T03:55:57.519Z,141.17
2022-10-18T03:58:26.818Z,140.73
2022-10-18T04:00:55.538Z,140.53
2022-10-18T04:03:24.244Z,141.23
2022-10-18T04:05:52.364Z,140.17
2022-10-18T04:08:20.388Z,140.43
2022-10-18T04:10:48.180Z,141.10
2022-10-18T04:13:16.067Z,140.60
2022-10-18T04:15:45.592Z,141.63
2022-10-18T04:18:13.351Z,141.37
2022-10-18T04:20:41.114Z,141.83
2022-10-18T04:23:08.877Z,141.17
2022-10-18T04:25:36.899Z,140.57
2022-10-18T04:28:04.935Z,142.27
2022-10-18T04:30:32.715Z,141.57
2022-10-18T04:33:01.876Z,140.83
2022-10-18T04:35:29.690Z,141.47
2022-10-18T04:37:57.444Z,140.90
2022-10-18T04:40:25.234Z,140.90
2022-10-18T04:42:53.032Z,140.90
2022-10-18T04:45:20.817Z,140.90
2022-10-18T04:47:48.582Z,141.40
2022-10-18T04:50:18.034Z,141.37
2022-10-18T04:52:45.825Z,141.23
2022-10-18T04:55:13.610Z,141.07
2022-10-18T04:57:41.362Z,140.53
2022-10-18T05:00:09.627Z,141.03
2022-10-18T05:02:37.494Z,142.87
2022-10-18T05:05:08.118Z,143.07
2022-10-18T05:07:39.524Z,141.90
2022-10-18T05:10:08.258Z,141.13
2022-10-18T05:12:36.052Z,141.03
2022-10-18T05:15:04.064Z,142.00
2022-10-18T05:17:31.877Z,141.23
2022-10-18T05:19:59.656Z,140.77
2022-10-18T05:22:27.397Z,140.90
2022-10-18T05:24:56.500Z,139.90
2022-10-18T05:27:24.283Z,140.53
2022-10-18T05:29:52.071Z,140.73
2022-10-18T05:32:19.836Z,141.13
2022-10-18T05:34:47.630Z,141.23
2022-10-18T05:37:15.425Z,140.87
2022-10-18T05:39:43.314Z,141.03
2022-10-18T05:42:12.424Z,140.87
2022-10-18T05:44:40.207Z,141.23
2022-10-18T05:47:07.997Z,141.10
2022-10-18T05:49:35.993Z,141.07
2022-10-18T05:52:03.827Z,142.13
2022-10-18T05:54:31.923Z,141.60
2022-10-18T05:56:59.728Z,141.33
2022-10-18T05:59:29.092Z,141.47
2022-10-18T06:01:58.176Z,141.47
2022-10-18T06:04:30.757Z,140.90
2022-10-18T06:06:58.548Z,141.00
2022-10-18T06:09:27.167Z,140.77
2022-10-18T06:11:55.354Z,141.23
2022-10-18T06:14:23.109Z,140.60
2022-10-18T06:16:52.319Z,142.17
2022-10-18T06:19:20.262Z,141.37
2022-10-18T06:21:48.186Z,140.70
2022-10-18T06:24:15.963Z,141.53
2022-10-18T06:26:43.715Z,140.80
2022-10-18T06:29:11.644Z,141.47
2022-10-18T06:31:39.486Z,141.43
2022-10-18T06:34:10.225Z,141.03
2022-10-18T06:36:38.023Z,141.70
2022-10-18T06:39:05.871Z,141.97
2022-10-18T06:41:33.651Z,141.67
2022-10-18T06:44:19.353Z,141.77
2022-10-18T06:46:48.671Z,141.83
2022-10-18T06:49:19.215Z,141.20
2022-10-18T06:51:47.410Z,141.67
2022-10-18T06:54:18.337Z,140.93
2022-10-18T06:56:47.135Z,141.17
2022-10-18T06:59:15.321Z,141.30
2022-10-18T07:01:43.699Z,141.47
2022-10-18T07:04:11.515Z,141.30
2022-10-18T07:06:40.640Z,140.50
2022-10-18T07:09:08.413Z,141.30
2022-10-18T07:11:36.196Z,142.47
2022-10-18T07:14:04.605Z,141.37
2022-10-18T07:16:33.425Z,141.77
2022-10-18T07:19:01.230Z,142.10
2022-10-18T07:21:29.117Z,141.33
2022-10-18T07:23:58.563Z,141.93
2022-10-18T07:26:30.992Z,141.73
2022-10-18T07:29:01.455Z,141.70
2022-10-18T07:31:30.135Z,141.03
2022-10-18T07:33:58.231Z,140.73
2022-10-18T07:36:26.357Z,141.17
2022-10-18T07:38:54.391Z,140.73
2022-10-18T07:41:23.877Z,141.20
2022-10-18T07:43:53.109Z,140.93
2022-10-18T07:46:22.285Z,141.50
2022-10-18T07:48:50.983Z,141.27
2022-10-18T07:51:19.444Z,141.47
2022-10-18T07:53:47.715Z,141.43
2022-10-18T07:56:17.013Z,142.07
2022-10-18T07:58:47.448Z,142.13
2022-10-18T08:01:16.291Z,141.30
2022-10-18T08:03:44.735Z,140.47
2022-10-18T08:06:16.088Z,140.30
2022-10-18T08:08:44.346Z,141.13
2022-10-18T08:11:14.731Z,140.23
2022-10-18T08:13:42.611Z,141.47
2022-10-18T08:16:14.359Z,141.43
2022-10-18T08:18:42.609Z,141.30
2022-10-18T08:21:12.466Z,141.40
2022-10-18T08:23:40.675Z,141.23
2022-10-18T08:26:10.007Z,141.30
2022-10-18T08:28:38.033Z,141.37
2022-10-18T08:31:07.134Z,141.10
2022-10-18T08:33:36.872Z,140.60
2022-10-18T08:36:07.364Z,141.80
2022-10-18T08:38:36.672Z,141.33
2022-10-18T08:41:35.101Z,141.20
2022-10-18T08:44:13.442Z,141.63
2022-10-18T08:46:45.087Z,140.93
2022-10-18T08:49:23.051Z,140.77
2022-10-18T08:51:52.633Z,140.97
2022-10-18T08:54:26.396Z,141.13
2022-10-18T08:57:00.592Z,141.20
2022-10-18T08:59:33.022Z,141.63
2022-10-18T09:02:16.576Z,141.70
2022-10-18T09:04:52.161Z,141.93
2022-10-18T09:07:36.584Z,140.77
2022-10-18T09:10:14.173Z,141.23
2022-10-18T09:12:56.652Z,141.77
2022-10-18T09:15:34.359Z,142.53
2022-10-18T09:18:14.425Z,142.33
2022-10-18T09:20:51.466Z,142.23
2022-10-18T09:23:22.894Z,142.23
2022-10-18T09:25:58.012Z,142.43
2022-10-18T09:28:38.414Z,141.23
2022-10-18T09:31:11.544Z,141.40
2022-10-18T09:33:47.708Z,142.50
2022-10-18T09:36:20.186Z,142.17
2022-10-18T09:38:50.540Z,142.00
2022-10-18T09:41:23.795Z,142.43
2022-10-18T09:43:56.517Z,142.90
2022-10-18T09:46:28.652Z,142.03
2022-10-18T09:49:01.191Z,141.63
2022-10-18T09:51:36.238Z,141.50
2022-10-18T09:54:16.131Z,141.23
2022-10-18T09:56:49.684Z,141.80
2022-10-18T09:59:33.286Z,141.70
2022-10-18T10:02:01.135Z,142.10
2022-10-18T10:04:29.613Z,142.20
2022-10-18T10:07:01.778Z,142.07
2022-10-18T10:09:36.906Z,142.37
2022-10-18T10:12:04.977Z,142.10
2022-10-18T10:14:45.771Z,142.30
2022-10-18T10:17:25.966Z,141.90
2022-10-18T10:19:59.741Z,142.63
2022-10-18T10:22:37.763Z,142.70
2022-10-18T10:25:06.954Z,142.47
2022-10-18T10:27:43.158Z,141.90
2022-10-18T10:30:25.351Z,142.37
2022-10-18T10:32:54.533Z,142.47
2022-10-18T10:35:35.492Z,142.60
2022-10-18T10:38:25.889Z,142.43
2022-10-18T10:40:54.819Z,141.63
2022-10-18T10:43:37.201Z,141.97
2022-10-18T10:46:09.695Z,141.60
2022-10-18T10:48:46.868Z,141.53
2022-10-18T10:51:16.384Z,142.67
2022-10-18T10:53:52.145Z,142.87
2022-10-18T10:56:24.910Z,142.70
2022-10-18T10:58:53.996Z,142.77
2022-10-18T11:01:25.147Z,142.20
2022-10-18T11:03:55.268Z,143.00
2022-10-18T11:06:47.033Z,143.77
2022-10-18T11:09:28.966Z,143.20
2022-10-18T11:12:14.485Z,143.67
2022-10-18T11:14:45.333Z,143.40
2022-10-18T11:17:20.761Z,143.00
2022-10-18T11:20:02.281Z,142.50
2022-10-18T11:22:34.279Z,143.30
2022-10-18T11:25:05.226Z,143.00
2022-10-18T11:27:37.885Z,143.50
2022-10-18T11:30:23.846Z,143.93
2022-10-18T11:33:02.968Z,142.57
2022-10-18T11:35:40.422Z,142.37
2022-10-18T11:38:21.617Z,142.63
2022-10-18T11:41:12.361Z,143.10
2022-10-18T11:44:01.583Z,142.20
2022-10-18T11:46:48.090Z,142.27
2022-10-18T11:49:31.658Z,142.80
2022-10-18T11:52:09.241Z,142.27
2022-10-18T11:55:05.844Z,141.93
2022-10-18T11:57:44.676Z,142.67
2022-10-18T12:03:27.611Z,143.60
2022-10-18T12:05:58.893Z,142.57
2022-10-18T12:08:30.255Z,143.77
2022-10-18T12:11:05.528Z,142.80
2022-10-18T12:13:40.661Z,142.50
2022-10-18T12:16:12.784Z,143.13
2022-10-18T12:18:49.502Z,143.50
2022-10-18T12:21:25.298Z,142.40
2022-10-18T12:23:59.316Z,142.13
2022-10-18T12:26:29.660Z,142.37
2022-10-18T12:29:06.436Z,142.63
2022-10-18T12:31:39.111Z,142.60
2022-10-18T12:34:23.500Z,142.70
2022-10-18T12:37:08.384Z,142.73
2022-10-18T12:39:43.753Z,141.77
2022-10-18T12:42:24.016Z,142.10
2022-10-18T12:45:02.069Z,142.67
2022-10-18T12:47:30.953Z,142.53
2022-10-18T12:50:00.528Z,142.67
2022-10-18T12:52:30.132Z,142.83
2022-10-18T12:55:30.171Z,142.93
2022-10-18T12:58:26.558Z,142.13
2022-10-18T13:01:05.230Z,142.13
2022-10-18T13:03:53.092Z,142.47
2022-10-18T13:06:21.852Z,142.87
2022-10-18T13:09:04.232Z,142.67
2022-10-18T13:11:35.897Z,143.00
2022-10-18T13:14:30.992Z,142.13
2022-10-18T13:17:05.813Z,142.40
2022-10-18T13:19:47.201Z,142.87
2022-10-18T13:22:27.119Z,142.83
2022-10-18T13:25:04.103Z,142.23
2022-10-18T13:27:41.307Z,142.57
2022-10-18T13:30:38.314Z,142.87
2022-10-18T13:33:23.182Z,142.50
2022-10-18T13:35:55.177Z,142.30
2022-10-18T13:38:43.602Z,142.73
2022-10-18T13:41:13.468Z,143.63
2022-10-18T13:44:10.821Z,142.53
2022-10-18T13:47:18.299Z,142.47
2022-10-18T13:50:06.695Z,142.33
2022-10-18T13:53:04.867Z,143.90
2022-10-18T13:55:44.470Z,143.20
2022-10-18T13:58:19.946Z,142.73
2022-10-18T14:01:06.843Z,142.77
2022-10-18T14:03:57.602Z,142.97
2022-10-18T14:06:29.807Z,141.97
2022-10-18T14:09:09.480Z,142.17
2022-10-18T14:11:51.264Z,143.10
2022-10-18T14:14:26.254Z,142.60
2022-10-18T14:17:01.794Z,142.87
2022-10-18T14:19:35.029Z,142.73
2022-10-18T14:22:12.297Z,142.33
2022-10-18T14:24:44.450Z,142.93
2022-10-18T14:27:17.218Z,141.80
2022-10-18T14:29:45.085Z,142.97
2022-10-18T14:32:23.816Z,142.83
2022-10-18T14:34:51.897Z,142.40
2022-10-18T14:37:27.592Z,142.87
2022-10-18T14:39:55.746Z,142.93
2022-10-18T14:42:25.259Z,142.53
2022-10-18T14:44:54.340Z,142.60
2022-10-18T14:47:25.572Z,143.07
2022-10-18T14:49:54.568Z,142.77
2022-10-18T14:52:29.471Z,142.43
2022-10-18T14:55:00.498Z,142.97
2022-10-18T14:57:31.426Z,143.67
2022-10-18T15:00:02.868Z,143.90
2022-10-18T15:02:33.205Z,143.30
2022-10-18T15:05:08.658Z,143.03
2022-10-18T15:07:38.463Z,142.80
2022-10-18T15:10:07.561Z,143.33
2022-10-18T15:12:45.631Z,142.37
2022-10-18T15:15:28.344Z,143.13
2022-10-18T15:17:56.482Z,143.67
2022-10-18T15:20:27.183Z,143.50
2022-10-18T15:23:23.011Z,143.30
2022-10-18T15:25:51.828Z,143.33
2022-10-18T15:28:28.705Z,142.90
2022-10-18T15:30:58.027Z,143.37
2022-10-18T15:33:27.330Z,142.03
2022-10-18T15:35:55.683Z,142.53
2022-10-18T15:38:29.013Z,144.23
2022-10-18T15:40:57.076Z,141.60
2022-10-18T15:43:36.714Z,142.47
2022-10-18T15:46:06.973Z,141.60
2022-10-18T15:48:38.112Z,142.27
2022-10-18T15:51:07.861Z,143.37
2022-10-18T15:53:43.562Z,142.27
2022-10-18T15:56:27.043Z,142.03
2022-10-18T15:58:57.777Z,142.73
2022-10-18T16:01:32.466Z,141.87
2022-10-18T16:04:01.789Z,142.83
2022-10-18T16:06:29.873Z,142.50
2022-10-18T16:08:58.996Z,142.23
2022-10-18T16:11:27.062Z,142.53
2022-10-18T16:13:57.869Z,144.20
2022-10-18T16:16:29.908Z,142.50
2022-10-18T16:18:58.749Z,141.90
2022-10-18T16:21:28.438Z,143.37
2022-10-18T16:23:56.710Z,142.20
2022-10-18T16:26:26.966Z,141.20
2022-10-18T16:28:56.292Z,141.77
2022-10-18T16:31:26.583Z,141.47
2022-10-18T16:33:56.195Z,142.90
2022-10-18T16:36:26.426Z,142.33
2022-10-18T16:38:54.917Z,142.53
2022-10-18T16:41:24.693Z,143.40
2022-10-18T16:43:52.574Z,142.60
2022-10-18T16:46:23.351Z,143.67
2022-10-18T16:48:52.408Z,143.07
2022-10-18T16:51:20.630Z,142.67
2022-10-18T16:53:48.643Z,141.83
2022-10-18T16:56:18.604Z,146.63
2022-10-18T16:58:48.579Z,139.87
2022-10-18T17:01:18.543Z,141.60
2022-10-18T17:03:46.859Z,142.63
2022-10-18T17:06:16.659Z,141.03
2022-10-18T17:08:44.778Z,142.23
2022-10-18T17:11:13.662Z,140.80
2022-10-18T17:13:41.492Z,142.27
2022-10-18T17:16:22.774Z,143.03
2022-10-18T17:18:50.632Z,141.03
2022-10-18T17:21:18.448Z,141.30
2022-10-18T17:23:46.355Z,140.00
2022-10-18T17:26:28.549Z,141.33
2022-10-18T17:28:58.730Z,138.43
2022-10-18T17:31:28.293Z,140.00
2022-10-18T17:33:56.126Z,140.43
2022-10-18T17:36:24.131Z,142.93
2022-10-18T17:38:52.416Z,140.97
2022-10-18T17:41:20.797Z,143.83
2022-10-18T17:43:48.916Z,141.70
2022-10-18T17:46:17.695Z,141.73
2022-10-18T17:48:46.910Z,142.03
2022-10-18T17:51:17.150Z,143.67
2022-10-18T17:53:45.270Z,140.83
2022-10-18T17:56:14.225Z,141.37
2022-10-18T17:58:43.409Z,140.90
2022-10-18T18:01:12.306Z,142.77
2022-10-18T18:03:40.499Z,141.80
2022-10-18T18:06:18.223Z,141.00
2022-10-18T18:08:47.156Z,141.30
2022-10-18T18:11:15.364Z,142.27
2022-10-18T18:13:43.118Z,143.23
2022-10-18T18:16:12.865Z,143.37
2022-10-18T18:18:40.705Z,142.83
2022-10-18T18:21:08.495Z,143.90
2022-10-18T18:23:37.668Z,140.57
2022-10-18T18:26:05.690Z,143.07
2022-10-18T18:28:34.425Z,140.67
2022-10-18T18:31:06.825Z,142.17
2022-10-18T18:33:35.434Z,142.23
2022-10-18T18:36:04.716Z,143.00
2022-10-18T18:38:32.990Z,140.07
2022-10-18T18:41:06.948Z,141.03
2022-10-18T18:43:34.818Z,142.57
2022-10-18T18:46:02.964Z,142.50
2022-10-18T18:48:33.510Z,140.40
2022-10-18T18:51:01.425Z,141.33
2022-10-18T18:53:29.825Z,142.80
2022-10-18T18:56:03.081Z,140.37
2022-10-18T18:58:32.950Z,140.40
2022-10-18T19:01:05.659Z,141.30
2022-10-18T19:03:33.473Z,140.43
2022-10-18T19:06:06.152Z,140.50
2022-10-18T19:08:36.878Z,140.27
2022-10-18T19:11:08.944Z,140.57
2022-10-18T19:13:38.629Z,141.67
2022-10-18T19:16:24.812Z,140.80
2022-10-18T19:18:58.771Z,141.73
2022-10-18T19:21:28.547Z,142.73
2022-10-18T19:23:57.093Z,141.43
2022-10-18T19:26:31.901Z,142.03
2022-10-18T19:29:09.814Z,142.40
2022-10-18T19:31:37.984Z,140.93
2022-10-18T19:34:07.450Z,142.77
2022-10-18T19:36:36.177Z,140.93
2022-10-18T19:39:04.986Z,139.73
2022-10-18T19:41:32.761Z,140.20
2022-10-18T19:44:00.573Z,140.97
2022-10-18T19:46:29.799Z,141.37
2022-10-18T19:48:58.539Z,141.53
2022-10-18T19:51:28.345Z,142.07
2022-10-18T19:53:57.672Z,141.77
2022-10-18T19:56:27.416Z,140.13
2022-10-18T19:58:55.778Z,141.90
2022-10-18T20:01:24.096Z,142.10
2022-10-18T20:03:53.516Z,140.57
2022-10-18T20:06:21.626Z,140.83
2022-10-18T20:08:49.578Z,142.40
2022-10-18T20:11:19.380Z,140.63
2022-10-18T20:13:47.705Z,142.80
2022-10-18T20:16:17.137Z,142.57
2022-10-18T20:18:45.162Z,142.27
2022-10-18T20:21:15.927Z,142.27
2022-10-18T20:23:45.032Z,139.33
2022-10-18T20:26:18.186Z,140.07
2022-10-18T20:28:48.827Z,140.43
2022-10-18T20:31:18.670Z,141.37
2022-10-18T20:33:47.681Z,140.10
2022-10-18T20:36:18.678Z,141.53
2022-10-18T20:38:49.571Z,140.03
2022-10-18T20:41:19.507Z,139.40
2022-10-18T20:43:52.453Z,139.40
2022-10-18T20:46:20.563Z,139.93
2022-10-18T20:48:49.543Z,141.43
2022-10-18T20:51:19.432Z,139.97
2022-10-18T20:53:47.492Z,139.23
2022-10-18T20:56:17.736Z,140.77
2022-10-18T20:58:46.352Z,140.77
2022-10-18T21:01:16.832Z,141.07
2022-10-18T21:03:46.375Z,140.20
2022-10-18T21:06:16.406Z,139.77
2022-10-18T21:08:46.038Z,140.77
2022-10-18T21:11:14.685Z,141.10
2022-10-18T21:13:42.480Z,139.27
2022-10-18T21:16:10.441Z,139.93
2022-10-18T21:18:40.239Z,139.67
2022-10-18T21:21:09.767Z,138.80
2022-10-18T21:23:38.080Z,138.17
2022-10-18T21:26:08.514Z,137.93
2022-10-18T21:28:36.397Z,138.37
2022-10-18T21:31:13.156Z,138.20
2022-10-18T21:33:41.344Z,138.70
2022-10-18T21:36:09.423Z,141.17
2022-10-18T21:38:37.477Z,141.37
2022-10-18T21:41:10.793Z,138.33
2022-10-18T21:43:40.892Z,138.23
2022-10-18T21:46:09.923Z,137.53
2022-10-18T21:48:38.497Z,137.03
2022-10-18T21:51:08.132Z,140.10
2022-10-18T21:53:36.572Z,139.37
2022-10-18T21:56:10.523Z,138.13
2022-10-18T21:58:39.379Z,140.03
2022-10-18T22:01:08.783Z,141.07
2022-10-18T22:03:36.618Z,138.87
2022-10-18T22:06:09.163Z,139.00
2022-10-18T22:08:37.441Z,140.17
2022-10-18T22:11:05.778Z,139.53
2022-10-18T22:13:35.071Z,137.87
2022-10-18T22:16:03.591Z,139.73
2022-10-18T22:18:32.562Z,139.77
2022-10-18T22:21:02.173Z,139.30
2022-10-18T22:23:33.031Z,139.00
2022-10-18T22:26:05.331Z,139.23
2022-10-18T22:28:34.874Z,139.50
2022-10-18T22:31:02.777Z,139.77
2022-10-18T22:33:30.955Z,139.50
2022-10-18T22:35:59.019Z,140.53
2022-10-18T22:38:26.760Z,139.47
2022-10-18T22:40:54.558Z,139.43
2022-10-18T22:43:22.324Z,140.23
2022-10-18T22:45:51.424Z,139.33
2022-10-18T22:48:19.196Z,139.73
2022-10-18T22:50:46.948Z,138.77
2022-10-18T22:53:14.720Z,139.43
2022-10-18T22:55:42.482Z,140.03
2022-10-18T22:58:10.243Z,139.70
2022-10-18T23:00:39.247Z,139.40
2022-10-18T23:03:08.583Z,139.67
2022-10-18T23:05:38.844Z,139.93
2022-10-18T23:08:06.705Z,139.80
2022-10-18T23:10:34.532Z,139.43
2022-10-18T23:13:02.310Z,138.90
2022-10-18T23:15:30.695Z,139.07
2022-10-18T23:17:58.616Z,139.37
2022-10-18T23:20:28.331Z,138.37
2022-10-18T23:22:56.131Z,139.23
2022-10-18T23:25:23.995Z,139.77
2022-10-18T23:27:51.773Z,138.57
2022-10-18T23:30:19.718Z,139.33
2022-10-18T23:32:47.459Z,139.37
2022-10-18T23:35:15.258Z,139.37
2022-10-18T23:37:44.392Z,139.53
2022-10-18T23:40:12.565Z,139.13
2022-10-18T23:42:40.410Z,139.20
2022-10-18T23:45:09.552Z,138.33
2022-10-18T23:47:37.309Z,138.97
2022-10-18T23:50:05.980Z,138.93
2022-10-18T23:52:33.743Z,139.00
2022-10-18T23:55:02.892Z,138.83
2022-10-18T23:57:30.871Z,139.60
2022-10-18T23:59:58.756Z,137.37
